• Join FlightAware (Why Join?)
  • Login
  • US Flag 
10:41PM EDT


 

Airport Tracker/Info


-or-


 

Live Flight TrackerFlight Track Log ✈ PVL5700 ✈ 11-May-2013 ✈ CYYR - CYDF

Flight Track Log - Related Links

Times and Time Zones

All times are in EDT time to prevent confusion due to time zone crossing. See the PVL5700 flight status page for this flight to view local times or setup timezone preferences in your user account.

Time Position Orientation Groundspeed Altitude Reporting Facility
EDT Latitude Longitude Course Direction KTS MPH feet Rate Location/Type
02:54PM 53.1667 -60.1667 149° Southeast 170 196 8,300  Level Gander Center
02:55PM 53.1333 -60.1333 149° Southeast 170 196 9,600 1,320 Climbing Gander Center
02:56PM 53.0833 -60.0833 149° Southeast 170 196 11,000 1,320 Climbing Gander Center
02:57PM 53.0333 -60.0667 169° South 180 207 12,300 1,320 Climbing Gander Center
02:58PM 52.9833 -60.0333 158° South 180 207 13,700 1,140 Climbing Gander Center
02:59PM 52.9618 -60.1285 149° Southeast  Level FlightAware Approximate
02:59PM 52.9500 -59.9833 138° Southeast 180 207 14,600  Level Gander Center
03:00PM 52.9000 -59.9500 158° South 180 207 15,600 900 Climbing Gander Center
03:01PM 52.8500 -59.9000 149° Southeast 190 219 16,500 900 Climbing Gander Center
03:02PM 52.8167 -59.8667 149° Southeast 190 219 17,400 660 Climbing Gander Center
03:03PM 52.7667 -59.8167 149° Southeast 190 219 17,900 600 Climbing Gander Center
03:04PM 52.7167 -59.7833 158° South 200 230 18,600 540 Climbing Gander Center
03:05PM 52.6667 -59.7333 149° Southeast 200 230 19,000 180 Climbing Gander Center
03:06PM 52.6000 -59.7167 171° South 220 253 19,000  Level Gander Center
03:07PM 52.5500 -59.6667 149° Southeast 250 288 19,000  Level Gander Center
03:08PM 52.4833 -59.6000 149° Southeast 260 299 19,000  Level Gander Center
03:09PM 52.4167 -59.5500 155° Southeast 260 299 19,000  Level Gander Center
03:10PM 52.3500 -59.5000 155° Southeast 270 311 19,000  Level Gander Center
03:11PM 52.2833 -59.4500 155° Southeast 270 311 19,000  Level Gander Center
03:12PM 52.2167 -59.3667 143° Southeast 270 311 19,000  Level Gander Center
03:13PM 52.1500 -59.3167 155° Southeast 270 311 19,000  Level Gander Center
03:14PM 52.0833 -59.2667 155° Southeast 270 311 19,000  Level Gander Center
03:15PM 52.0000 -59.2167 160° South 270 311 19,000  Level Gander Center
03:16PM 51.9333 -59.1667 155° Southeast 270 311 19,000  Level Gander Center
03:17PM 51.8667 -59.1167 155° Southeast 270 311 19,000  Level Gander Center
03:18PM 51.8000 -59.0667 155° Southeast 270 311 19,000  Level Gander Center
03:19PM 51.7333 -59.0167 155° Southeast 270 311 19,000  Level Gander Center
03:20PM 51.6667 -58.9667 155° Southeast 270 311 19,000  Level Gander Center
03:21PM 51.6000 -58.9167 155° Southeast 270 311 19,000  Level Gander Center
03:22PM 51.5333 -58.8667 155° Southeast 270 311 19,000  Level Gander Center
03:23PM 51.4500 -58.7833 148° Southeast 270 311 19,000  Level Gander Center
03:24PM 51.4000 -58.7333 148° Southeast 270 311 19,000  Level Gander Center
03:25PM 51.3333 -58.6833 155° Southeast 270 311 19,000  Level Gander Center
03:26PM 51.2500 -58.6333 159° South 270 311 19,000  Level Gander Center
03:27PM 51.2000 -58.5833 148° Southeast 270 311 19,000  Level Gander Center
03:28PM 51.1000 -58.5333 163° South 270 311 19,000  Level Gander Center
03:29PM 51.0333 -58.4833 155° Southeast 270 311 19,000  Level Gander Center
03:30PM 50.9667 -58.4333 155° Southeast 270 311 19,000  Level Gander Center
03:31PM 50.9000 -58.3833 155° Southeast 270 311 19,000  Level Gander Center
03:32PM 50.8333 -58.3667 171° South 260 299 19,000  Level Gander Center
03:33PM 50.7667 -58.3500 171° South 260 299 19,000  Level Gander Center
03:34PM 50.7000 -58.3000 155° Southeast 260 299 19,000  Level Gander Center
03:35PM 50.6333 -58.2833 171° South 270 311 19,000  Level Gander Center
03:36PM 50.5500 -58.2500 166° South 270 311 19,000  Level Gander Center
03:37PM 50.4833 -58.2000 154° Southeast 270 311 19,000  Level Gander Center
03:38PM 50.4167 -58.1833 171° South 270 311 19,000  Level Gander Center
03:39PM 50.3333 -58.1667 173° South 260 299 19,000  Level Gander Center
03:40PM 50.2667 -58.1167 154° Southeast 270 311 19,000  Level Gander Center
03:41PM 50.2000 -58.1000 171° South 270 311 19,000  Level Gander Center
03:42PM 50.1167 -58.0667 166° South 270 311 19,000 -600 Level Gander Center
03:43PM 50.0333 -58.0333 166° South 280 322 17,900 -1,140 Descending Gander Center
03:44PM 49.9667 -58.0000 162° South 300 345 16,800 -1,200 Descending Gander Center
03:45PM 49.8833 -57.9833 173° South 300 345 15,600 -1,140 Descending Gander Center
03:46PM 49.8000 -57.9333 159° South 290 334 14,600 -1,080 Descending Gander Center
03:47PM 49.7333 -57.9167 171° South 280 322 13,500 -1,080 Descending Gander Center
03:48PM 49.6500 -57.8667 159° South 280 322 12,500 -1,020 Descending Gander Center
03:49PM 49.5833 -57.8500 171° South 280 322 11,500 -1,080 Descending Gander Center
03:50PM 49.5000 -57.8333 173° South 270 311 10,400 -1,080 Descending Gander Center
03:51PM 49.4333 -57.8167 171° South 270 311 9,400 -1,080 Descending Gander Center
03:52PM 49.3667 -57.7667 154° Southeast 270 311 8,300 -960 Descending Gander Center
03:53PM 49.3000 -57.7500 171° South 250 288 7,500 -900 Descending Gander Center
03:54PM 49.2333 -57.7167 162° South 250 288 6,600 -900 Descending Gander Center
03:55PM 49.1667 -57.7000 171° South 250 288 5,700 -960 Descending Gander Center
03:56PM 49.1000 -57.6500 154° Southeast 240 276 4,700 -720 Descending Gander Center
03:57PM 49.0500 -57.5833 139° Southeast 230 265 4,300 -420 Descending Gander Center
03:59PM 49.1367 -57.4679 41° Northeast  Level FlightAware Approximate
04:06PM 49.2000 -57.3833 60° Northeast  Level FlightAware Approximate
04:07PM 49.2108 -57.3914 60° Northeast  Level Estimated
04:08PM 49.2108 -57.3914 60° Northeast  Level Estimated